Hlavní strana
METAR-TAF:

METAR-TAF

Letiště :

San Andrés, Kolumbie

zeměpisná šířka: 12-35N, zeměpisná délka: 081-43W, výška: 1 m

Aktuální stav počasí

Zpráva byla vytvořena před 35 minutami, v 08:00 UTC
Východní vítr 7 kt, proměnlivý mezi východoseverovýchodním a východojihovýchodním
Teplota 27°C
Vlhkost vzduchu 79%
Tlak 1011 hPa
Viditelnost 10 km a více
Skoro jasno ve výšce 1600 ft
Oblačno až skoro zataženo ve výšce 20000 ft

METAR: SKSP 190800Z 09007KT 060V120 9999 FEW016 BKN200 27/23 A2985

Čas: 03:35 (08:35 UTC)

Předpověď počasí

Zpráva byla vytvořena před 3 hodinami a 35 minutami, v 05:00 UTC
Předpověď platná od 19 v 06 UTC do 20 v 06 UTC
Východoseverovýchodní vítr 10 kt
Viditelnost 10 km a více
Skoro jasno ve výšce 1800 ft

TAF: SKSP 190500Z 1906/2006 07010KT 9999 FEW018 TX30/1919Z TN27/1911Z

Stav a předpovědi počasí z více než 4 000 letišť (zprávy METAR a TAF).

Červené a žluté tečky na mapě představují dostupné meteorologické stanice.

Když kurzor umístíte na tečku, zobrazí se název stanice.

Pak kliknutím zobrazíte stav a předpověď počasí.

Chcete-li změnit mapu, kliknutím na zelené tlačítko se znaménkem +mapu přiblížíte, kliknutím na zelené tlačítko se znaménkem – mapu oddálíte a kliknutím na zelené šipky přejdete na sousední mapy.


METAR-TAF: